IGO847 VOMM-VOBL
Flight info
| Callsign | IGO847 |
|---|---|
| Flight time | 0h 28m |
| Altitude | 16000 |
| Route | XIVIL2B/25 MMV W117 BIA |
| Aircraft | A20N/M-SDE2E3FGHIRWXY/LB1 |
Departure
| Time | 2026-04-30 17:57 |
|---|---|
| Airport | Chennai International Airport (VOMM) |
Arrival
| Time | 2026-04-30 18:25 |
|---|---|
| Airport | Kempegowda International Airport Bengaluru (VOBL) |
| Time | Latitude | Longitude | Altitude | Speed | Heading |
|---|---|---|---|---|---|
| 2026-04-30 17:39 | 12.98478 | 80.16674 | 56 ft | 0 kts | 161° |
| 2026-04-30 17:46 | 12.98515 | 80.16661 | 54 ft | 0 kts | 161° |
| 2026-04-30 17:47 | 12.98540 | 80.16638 | 49 ft | 1 kts | 100° |
| 2026-04-30 17:48 | 12.98538 | 80.16617 | 51 ft | 0 kts | 72° |
| 2026-04-30 17:50 | 12.98540 | 80.16622 | 50 ft | 2 kts | 72° |
| 2026-04-30 17:51 | 12.98588 | 80.16746 | 56 ft | 12 kts | 58° |
| 2026-04-30 17:52 | 12.98797 | 80.16843 | 52 ft | 17 kts | 69° |
| 2026-04-30 17:53 | 12.99098 | 80.17606 | 55 ft | 28 kts | 69° |
| 2026-04-30 17:54 | 12.99439 | 80.18328 | 56 ft | 16 kts | 42° |
| 2026-04-30 17:55 | 12.99575 | 80.18395 | 61 ft | 9 kts | 297° |
| 2026-04-30 17:56 | 12.98879 | 80.16538 | 287 ft | 148 kts | 245° |
| 2026-04-30 17:57 | 12.97752 | 80.13546 | 1838 ft | 149 kts | 242° |
| 2026-04-30 17:58 | 12.96440 | 80.10025 | 3313 ft | 212 kts | 255° |
| 2026-04-30 17:59 | 12.98082 | 80.02921 | 6018 ft | 278 kts | 284° |
| 2026-04-30 18:00 | 13.00335 | 79.95025 | 9359 ft | 302 kts | 287° |
| 2026-04-30 18:00 | 13.02199 | 79.88443 | 10870 ft | 350 kts | 287° |
| 2026-04-30 18:01 | 13.03582 | 79.83567 | 12401 ft | 359 kts | 287° |
| 2026-04-30 18:02 | 13.05697 | 79.76106 | 14704 ft | 369 kts | 287° |
| 2026-04-30 18:02 | 13.07861 | 79.68464 | 15814 ft | 376 kts | 287° |
| 2026-04-30 18:03 | 13.10048 | 79.60733 | 15832 ft | 376 kts | 287° |
| 2026-04-30 18:04 | 13.12222 | 79.53037 | 15843 ft | 376 kts | 287° |
| 2026-04-30 18:05 | 13.15134 | 79.42716 | 15850 ft | 376 kts | 287° |
| 2026-04-30 18:06 | 13.18029 | 79.32436 | 15860 ft | 376 kts | 287° |
| 2026-04-30 18:07 | 13.20930 | 79.22124 | 15869 ft | 376 kts | 287° |
| 2026-04-30 18:08 | 13.23102 | 79.14391 | 15881 ft | 377 kts | 287° |
| 2026-04-30 18:09 | 13.25986 | 79.04105 | 15892 ft | 376 kts | 287° |
| 2026-04-30 18:10 | 13.28833 | 78.93783 | 15902 ft | 377 kts | 283° |
| 2026-04-30 18:11 | 13.28839 | 78.83046 | 15923 ft | 380 kts | 267° |
| 2026-04-30 18:11 | 13.28294 | 78.74934 | 15933 ft | 380 kts | 267° |
| 2026-04-30 18:12 | 13.27744 | 78.66846 | 15943 ft | 380 kts | 267° |
| 2026-04-30 18:13 | 13.27375 | 78.61435 | 15951 ft | 380 kts | 267° |
| 2026-04-30 18:13 | 13.26880 | 78.54233 | 15961 ft | 380 kts | 267° |
| 2026-04-30 18:14 | 13.26445 | 78.47914 | 15969 ft | 380 kts | 267° |
| 2026-04-30 18:15 | 13.25837 | 78.39849 | 15980 ft | 380 kts | 265° |
| 2026-04-30 18:15 | 13.24919 | 78.31753 | 13730 ft | 390 kts | 265° |
| 2026-04-30 18:16 | 13.24288 | 78.26268 | 11855 ft | 381 kts | 264° |
| 2026-04-30 18:16 | 13.23676 | 78.20984 | 10334 ft | 367 kts | 264° |
| 2026-04-30 18:17 | 13.23383 | 78.18461 | 10105 ft | 345 kts | 264° |
| 2026-04-30 18:17 | 13.23108 | 78.16086 | 9910 ft | 324 kts | 264° |
| 2026-04-30 18:17 | 13.22599 | 78.11701 | 9124 ft | 302 kts | 264° |
| 2026-04-30 18:18 | 13.22353 | 78.09578 | 8590 ft | 297 kts | 264° |
| 2026-04-30 18:18 | 13.22111 | 78.07496 | 8114 ft | 291 kts | 264° |
| 2026-04-30 18:18 | 13.21872 | 78.05447 | 7642 ft | 289 kts | 264° |
| 2026-04-30 18:18 | 13.21633 | 78.03394 | 7184 ft | 289 kts | 264° |
| 2026-04-30 18:19 | 13.21398 | 78.01386 | 6734 ft | 285 kts | 264° |
| 2026-04-30 18:19 | 13.21164 | 77.99386 | 6288 ft | 279 kts | 264° |
| 2026-04-30 18:19 | 13.20938 | 77.97455 | 6079 ft | 264 kts | 264° |
| 2026-04-30 18:19 | 13.20726 | 77.95657 | 6017 ft | 243 kts | 264° |
| 2026-04-30 18:20 | 13.20531 | 77.94010 | 6017 ft | 221 kts | 264° |
| 2026-04-30 18:20 | 13.20493 | 77.92517 | 6030 ft | 199 kts | 272° |
| 2026-04-30 18:20 | 13.20515 | 77.91168 | 6022 ft | 180 kts | 272° |
| 2026-04-30 18:20 | 13.20527 | 77.89946 | 6015 ft | 162 kts | 271° |
| 2026-04-30 18:21 | 13.20536 | 77.88830 | 6034 ft | 157 kts | 272° |
| 2026-04-30 18:21 | 13.20546 | 77.87702 | 5977 ft | 153 kts | 272° |
| 2026-04-30 18:21 | 13.20555 | 77.86654 | 5789 ft | 146 kts | 271° |
| 2026-04-30 18:21 | 13.20565 | 77.85630 | 5567 ft | 142 kts | 271° |
| 2026-04-30 18:22 | 13.20576 | 77.84629 | 5359 ft | 140 kts | 271° |
| 2026-04-30 18:22 | 13.20597 | 77.82621 | 4954 ft | 140 kts | 270° |
| 2026-04-30 18:22 | 13.20607 | 77.81625 | 4751 ft | 139 kts | 270° |
| 2026-04-30 18:23 | 13.20617 | 77.80640 | 4547 ft | 137 kts | 269° |
| 2026-04-30 18:23 | 13.20626 | 77.79667 | 4354 ft | 135 kts | 269° |
| 2026-04-30 18:23 | 13.20636 | 77.78699 | 4184 ft | 137 kts | 269° |
| 2026-04-30 18:23 | 13.20646 | 77.77749 | 3998 ft | 131 kts | 268° |
| 2026-04-30 18:24 | 13.20661 | 77.75861 | 3590 ft | 131 kts | 268° |
| 2026-04-30 18:24 | 13.20670 | 77.74921 | 3454 ft | 134 kts | 268° |
| 2026-04-30 18:24 | 13.20675 | 77.73966 | 3263 ft | 133 kts | 268° |
| 2026-04-30 18:25 | 13.20682 | 77.73021 | 3098 ft | 132 kts | 268° |
| 2026-04-30 18:25 | 13.20696 | 77.71267 | 2951 ft | 86 kts | 269° |
| 2026-04-30 18:25 | 13.20699 | 77.70850 | 2960 ft | 45 kts | 270° |
| 2026-04-30 18:26 | 13.20703 | 77.70288 | 2973 ft | 25 kts | 271° |
| 2026-04-30 18:26 | 13.20685 | 77.70121 | 2977 ft | 23 kts | 253° |
| 2026-04-30 18:26 | 13.20620 | 77.69975 | 2979 ft | 21 kts | 242° |
| 2026-04-30 18:27 | 13.20534 | 77.70003 | 2979 ft | 0 kts | 90° |
| 2026-04-30 18:28 | 13.20534 | 77.70023 | 2978 ft | 6 kts | 90° |
| 2026-04-30 18:28 | 13.20533 | 77.70179 | 2975 ft | 16 kts | 90° |
| 2026-04-30 18:29 | 13.20531 | 77.70310 | 2972 ft | 21 kts | 91° |
| 2026-04-30 18:29 | 13.20285 | 77.70391 | 2970 ft | 17 kts | 171° |
| 2026-04-30 18:30 | 13.20245 | 77.70642 | 2964 ft | 23 kts | 91° |
| 2026-04-30 18:30 | 13.20242 | 77.70844 | 2959 ft | 17 kts | 89° |
| 2026-04-30 18:31 | 13.20222 | 77.70919 | 2945 ft | 5 kts | 178° |
| 2026-04-30 18:31 | 13.20158 | 77.70916 | 2946 ft | 0 kts | 180° |